sensor_id;sensor_type;location;lat;lon;timestamp;P1;durP1;ratioP1;P2;durP2;ratioP2
6842;SDS011;3460;52.028;8.916;2023-05-23T00:01:37;31.90;;;24.87;;
6842;SDS011;3460;52.028;8.916;2023-05-23T00:04:04;30.17;;;23.10;;
6842;SDS011;3460;52.028;8.916;2023-05-23T00:06:31;27.93;;;21.73;;
6842;SDS011;3460;52.028;8.916;2023-05-23T00:09:00;28.10;;;21.10;;
6842;SDS011;3460;52.028;8.916;2023-05-23T00:11:26;28.63;;;20.03;;
6842;SDS011;3460;52.028;8.916;2023-05-23T00:13:53;27.67;;;20.57;;
6842;SDS011;3460;52.028;8.916;2023-05-23T00:16:21;25.47;;;20.57;;
6842;SDS011;3460;52.028;8.916;2023-05-23T00:18:49;23.07;;;20.60;;
6842;SDS011;3460;52.028;8.916;2023-05-23T00:21:17;26.07;;;19.57;;
6842;SDS011;3460;52.028;8.916;2023-05-23T00:23:44;27.70;;;20.43;;
6842;SDS011;3460;52.028;8.916;2023-05-23T00:26:11;23.37;;;19.23;;
6842;SDS011;3460;52.028;8.916;2023-05-23T00:28:38;21.23;;;19.03;;
6842;SDS011;3460;52.028;8.916;2023-05-23T00:31:04;22.20;;;19.00;;
6842;SDS011;3460;52.028;8.916;2023-05-23T00:33:31;23.73;;;19.23;;
6842;SDS011;3460;52.028;8.916;2023-05-23T00:35:59;21.63;;;19.00;;
6842;SDS011;3460;52.028;8.916;2023-05-23T00:38:26;26.80;;;18.93;;
6842;SDS011;3460;52.028;8.916;2023-05-23T00:40:53;24.20;;;17.97;;
6842;SDS011;3460;52.028;8.916;2023-05-23T00:43:20;20.10;;;17.97;;
6842;SDS011;3460;52.028;8.916;2023-05-23T00:45:47;22.97;;;17.17;;
6842;SDS011;3460;52.028;8.916;2023-05-23T00:48:14;19.00;;;16.03;;
6842;SDS011;3460;52.028;8.916;2023-05-23T00:50:41;24.67;;;16.60;;
6842;SDS011;3460;52.028;8.916;2023-05-23T00:53:10;20.33;;;15.73;;
6842;SDS011;3460;52.028;8.916;2023-05-23T00:55:38;22.93;;;16.33;;
6842;SDS011;3460;52.028;8.916;2023-05-23T00:58:05;20.20;;;15.67;;
6842;SDS011;3460;52.028;8.916;2023-05-23T01:00:32;24.23;;;16.90;;
6842;SDS011;3460;52.028;8.916;2023-05-23T01:02:59;19.27;;;16.77;;
6842;SDS011;3460;52.028;8.916;2023-05-23T01:05:27;21.53;;;16.77;;
6842;SDS011;3460;52.028;8.916;2023-05-23T01:07:54;24.00;;;17.70;;
6842;SDS011;3460;52.028;8.916;2023-05-23T01:10:22;21.80;;;18.67;;
6842;SDS011;3460;52.028;8.916;2023-05-23T01:12:55;23.07;;;17.77;;
6842;SDS011;3460;52.028;8.916;2023-05-23T01:15:30;23.17;;;19.03;;
6842;SDS011;3460;52.028;8.916;2023-05-23T01:18:04;26.43;;;20.27;;
6842;SDS011;3460;52.028;8.916;2023-05-23T01:20:36;25.43;;;20.60;;
6842;SDS011;3460;52.028;8.916;2023-05-23T01:28:55;26.00;;;19.53;;
6842;SDS011;3460;52.028;8.916;2023-05-23T01:31:29;26.43;;;18.93;;
6842;SDS011;3460;52.028;8.916;2023-05-23T01:33:59;23.70;;;18.77;;
6842;SDS011;3460;52.028;8.916;2023-05-23T01:36:27;20.80;;;18.17;;
6842;SDS011;3460;52.028;8.916;2023-05-23T01:38:56;27.53;;;18.53;;
6842;SDS011;3460;52.028;8.916;2023-05-23T01:41:23;26.77;;;18.03;;
6842;SDS011;3460;52.028;8.916;2023-05-23T01:43:50;21.83;;;17.23;;
6842;SDS011;3460;52.028;8.916;2023-05-23T01:46:18;24.93;;;18.03;;
6842;SDS011;3460;52.028;8.916;2023-05-23T01:48:46;26.00;;;17.00;;
6842;SDS011;3460;52.028;8.916;2023-05-23T01:51:13;21.73;;;17.03;;
6842;SDS011;3460;52.028;8.916;2023-05-23T01:53:40;23.33;;;17.63;;
6842;SDS011;3460;52.028;8.916;2023-05-23T01:56:08;21.37;;;17.23;;
6842;SDS011;3460;52.028;8.916;2023-05-23T01:58:36;27.00;;;17.37;;
6842;SDS011;3460;52.028;8.916;2023-05-23T02:01:03;22.73;;;16.97;;
6842;SDS011;3460;52.028;8.916;2023-05-23T02:03:31;26.23;;;17.37;;
6842;SDS011;3460;52.028;8.916;2023-05-23T02:05:58;25.40;;;17.67;;
6842;SDS011;3460;52.028;8.916;2023-05-23T02:08:25;22.93;;;16.57;;
6842;SDS011;3460;52.028;8.916;2023-05-23T02:10:52;21.97;;;17.67;;
6842;SDS011;3460;52.028;8.916;2023-05-23T02:13:18;27.37;;;17.03;;
6842;SDS011;3460;52.028;8.916;2023-05-23T02:15:45;23.80;;;17.63;;
6842;SDS011;3460;52.028;8.916;2023-05-23T02:18:12;21.53;;;17.50;;
6842;SDS011;3460;52.028;8.916;2023-05-23T02:20:43;21.00;;;16.93;;
6842;SDS011;3460;52.028;8.916;2023-05-23T02:23:10;21.70;;;16.93;;
6842;SDS011;3460;52.028;8.916;2023-05-23T02:25:37;24.97;;;17.43;;
6842;SDS011;3460;52.028;8.916;2023-05-23T02:28:04;23.07;;;17.77;;
6842;SDS011;3460;52.028;8.916;2023-05-23T02:30:31;22.93;;;18.13;;
6842;SDS011;3460;52.028;8.916;2023-05-23T02:32:57;21.90;;;17.30;;
6842;SDS011;3460;52.028;8.916;2023-05-23T02:35:25;25.30;;;18.30;;
6842;SDS011;3460;52.028;8.916;2023-05-23T02:37:53;22.50;;;18.33;;
6842;SDS011;3460;52.028;8.916;2023-05-23T02:40:20;25.80;;;18.07;;
6842;SDS011;3460;52.028;8.916;2023-05-23T02:42:47;24.60;;;17.80;;
6842;SDS011;3460;52.028;8.916;2023-05-23T02:45:15;22.57;;;17.20;;
6842;SDS011;3460;52.028;8.916;2023-05-23T02:47:41;22.67;;;17.77;;
6842;SDS011;3460;52.028;8.916;2023-05-23T02:50:09;23.20;;;16.77;;
6842;SDS011;3460;52.028;8.916;2023-05-23T02:52:36;17.80;;;14.60;;
6842;SDS011;3460;52.028;8.916;2023-05-23T02:55:05;16.77;;;13.60;;
6842;SDS011;3460;52.028;8.916;2023-05-23T02:57:32;15.73;;;11.60;;
6842;SDS011;3460;52.028;8.916;2023-05-23T03:00:01;19.07;;;10.47;;
6842;SDS011;3460;52.028;8.916;2023-05-23T03:02:28;12.73;;;9.87;;
6842;SDS011;3460;52.028;8.916;2023-05-23T03:04:55;15.30;;;10.37;;
6842;SDS011;3460;52.028;8.916;2023-05-23T03:07:22;14.13;;;10.07;;
6842;SDS011;3460;52.028;8.916;2023-05-23T03:09:49;11.33;;;9.77;;
6842;SDS011;3460;52.028;8.916;2023-05-23T03:12:17;10.87;;;9.23;;
6842;SDS011;3460;52.028;8.916;2023-05-23T03:14:44;11.90;;;9.70;;
6842;SDS011;3460;52.028;8.916;2023-05-23T03:17:12;13.67;;;10.03;;
6842;SDS011;3460;52.028;8.916;2023-05-23T03:19:39;11.33;;;9.40;;
6842;SDS011;3460;52.028;8.916;2023-05-23T03:22:05;12.40;;;9.70;;
6842;SDS011;3460;52.028;8.916;2023-05-23T03:24:32;12.27;;;9.70;;
6842;SDS011;3460;52.028;8.916;2023-05-23T03:26:59;14.40;;;10.10;;
6842;SDS011;3460;52.028;8.916;2023-05-23T03:29:28;12.60;;;9.43;;
6842;SDS011;3460;52.028;8.916;2023-05-23T03:31:55;14.63;;;10.07;;
6842;SDS011;3460;52.028;8.916;2023-05-23T03:34:21;12.87;;;9.40;;
6842;SDS011;3460;52.028;8.916;2023-05-23T03:36:50;11.70;;;9.77;;
6842;SDS011;3460;52.028;8.916;2023-05-23T03:39:17;15.33;;;9.20;;
6842;SDS011;3460;52.028;8.916;2023-05-23T03:41:44;14.43;;;10.07;;
6842;SDS011;3460;52.028;8.916;2023-05-23T03:44:11;14.07;;;10.37;;
6842;SDS011;3460;52.028;8.916;2023-05-23T03:46:40;13.77;;;10.00;;
6842;SDS011;3460;52.028;8.916;2023-05-23T03:49:06;12.97;;;9.60;;
6842;SDS011;3460;52.028;8.916;2023-05-23T03:51:33;15.00;;;10.33;;
6842;SDS011;3460;52.028;8.916;2023-05-23T03:54:00;12.83;;;9.93;;
6842;SDS011;3460;52.028;8.916;2023-05-23T03:56:27;14.93;;;10.53;;
6842;SDS011;3460;52.028;8.916;2023-05-23T03:58:54;13.03;;;9.70;;
6842;SDS011;3460;52.028;8.916;2023-05-23T04:01:20;15.00;;;10.93;;
6842;SDS011;3460;52.028;8.916;2023-05-23T04:03:49;11.97;;;9.83;;
6842;SDS011;3460;52.028;8.916;2023-05-23T04:06:16;15.30;;;10.77;;
6842;SDS011;3460;52.028;8.916;2023-05-23T04:08:44;15.93;;;10.63;;
6842;SDS011;3460;52.028;8.916;2023-05-23T04:11:11;15.67;;;11.17;;
6842;SDS011;3460;52.028;8.916;2023-05-23T04:13:37;14.50;;;10.67;;
6842;SDS011;3460;52.028;8.916;2023-05-23T04:16:05;14.63;;;10.73;;
6842;SDS011;3460;52.028;8.916;2023-05-23T04:18:32;13.83;;;10.57;;
6842;SDS011;3460;52.028;8.916;2023-05-23T04:21:01;15.87;;;11.37;;
6842;SDS011;3460;52.028;8.916;2023-05-23T04:23:28;75.43;;;53.40;;
6842;SDS011;3460;52.028;8.916;2023-05-23T04:25:55;14.33;;;12.00;;
6842;SDS011;3460;52.028;8.916;2023-05-23T04:28:22;15.90;;;11.13;;
6842;SDS011;3460;52.028;8.916;2023-05-23T04:30:49;15.33;;;11.27;;
6842;SDS011;3460;52.028;8.916;2023-05-23T04:33:16;16.50;;;11.67;;
6842;SDS011;3460;52.028;8.916;2023-05-23T04:35:43;16.90;;;11.77;;
6842;SDS011;3460;52.028;8.916;2023-05-23T04:38:11;16.80;;;12.67;;
6842;SDS011;3460;52.028;8.916;2023-05-23T04:40:38;17.20;;;12.67;;
6842;SDS011;3460;52.028;8.916;2023-05-23T04:43:05;18.33;;;12.23;;
6842;SDS011;3460;52.028;8.916;2023-05-23T04:45:34;15.43;;;12.73;;
6842;SDS011;3460;52.028;8.916;2023-05-23T04:48:01;41.83;;;30.30;;
6842;SDS011;3460;52.028;8.916;2023-05-23T04:50:28;18.30;;;12.73;;
6842;SDS011;3460;52.028;8.916;2023-05-23T04:52:57;17.80;;;12.53;;
6842;SDS011;3460;52.028;8.916;2023-05-23T04:55:25;15.33;;;12.67;;
6842;SDS011;3460;52.028;8.916;2023-05-23T04:57:52;19.23;;;14.47;;
6842;SDS011;3460;52.028;8.916;2023-05-23T05:00:20;18.57;;;13.67;;
6842;SDS011;3460;52.028;8.916;2023-05-23T05:02:47;19.53;;;14.40;;
6842;SDS011;3460;52.028;8.916;2023-05-23T05:05:14;22.40;;;14.70;;
6842;SDS011;3460;52.028;8.916;2023-05-23T05:07:41;19.47;;;14.27;;
6842;SDS011;3460;52.028;8.916;2023-05-23T05:10:09;21.60;;;14.63;;
6842;SDS011;3460;52.028;8.916;2023-05-23T05:12:42;21.67;;;14.63;;
6842;SDS011;3460;52.028;8.916;2023-05-23T05:15:09;21.90;;;14.73;;
6842;SDS011;3460;52.028;8.916;2023-05-23T05:17:37;20.73;;;14.93;;
6842;SDS011;3460;52.028;8.916;2023-05-23T05:20:04;20.70;;;14.80;;
6842;SDS011;3460;52.028;8.916;2023-05-23T05:22:32;22.40;;;14.97;;
6842;SDS011;3460;52.028;8.916;2023-05-23T05:25:00;21.10;;;15.57;;
6842;SDS011;3460;52.028;8.916;2023-05-23T05:27:28;19.77;;;14.17;;
6842;SDS011;3460;52.028;8.916;2023-05-23T05:29:56;20.73;;;15.17;;
6842;SDS011;3460;52.028;8.916;2023-05-23T05:32:28;23.53;;;15.20;;
6842;SDS011;3460;52.028;8.916;2023-05-23T05:34:55;24.27;;;15.07;;
6842;SDS011;3460;52.028;8.916;2023-05-23T05:37:23;18.90;;;15.57;;
6842;SDS011;3460;52.028;8.916;2023-05-23T05:39:50;24.03;;;14.70;;
6842;SDS011;3460;52.028;8.916;2023-05-23T05:42:18;21.03;;;15.07;;
6842;SDS011;3460;52.028;8.916;2023-05-23T05:44:45;21.43;;;15.13;;
6842;SDS011;3460;52.028;8.916;2023-05-23T05:47:13;22.77;;;15.70;;
6842;SDS011;3460;52.028;8.916;2023-05-23T05:49:40;22.37;;;15.20;;
6842;SDS011;3460;52.028;8.916;2023-05-23T05:52:07;23.10;;;15.53;;
6842;SDS011;3460;52.028;8.916;2023-05-23T05:54:34;20.67;;;14.37;;
6842;SDS011;3460;52.028;8.916;2023-05-23T05:57:01;18.03;;;14.03;;
6842;SDS011;3460;52.028;8.916;2023-05-23T05:59:28;23.40;;;14.90;;
6842;SDS011;3460;52.028;8.916;2023-05-23T06:01:55;18.40;;;14.40;;
6842;SDS011;3460;52.028;8.916;2023-05-23T06:04:23;22.13;;;14.43;;
6842;SDS011;3460;52.028;8.916;2023-05-23T06:06:50;20.40;;;14.40;;
6842;SDS011;3460;52.028;8.916;2023-05-23T06:09:17;24.77;;;15.43;;
6842;SDS011;3460;52.028;8.916;2023-05-23T06:11:44;26.67;;;15.43;;
6842;SDS011;3460;52.028;8.916;2023-05-23T06:14:10;27.83;;;14.43;;
6842;SDS011;3460;52.028;8.916;2023-05-23T06:16:37;21.57;;;14.83;;
6842;SDS011;3460;52.028;8.916;2023-05-23T06:19:04;19.93;;;14.43;;
6842;SDS011;3460;52.028;8.916;2023-05-23T06:21:32;21.57;;;14.10;;
6842;SDS011;3460;52.028;8.916;2023-05-23T06:24:00;19.90;;;14.20;;
6842;SDS011;3460;52.028;8.916;2023-05-23T06:26:27;18.40;;;14.23;;
6842;SDS011;3460;52.028;8.916;2023-05-23T06:28:53;22.20;;;15.13;;
6842;SDS011;3460;52.028;8.916;2023-05-23T06:31:20;20.60;;;15.23;;
6842;SDS011;3460;52.028;8.916;2023-05-23T06:33:47;25.27;;;17.30;;
6842;SDS011;3460;52.028;8.916;2023-05-23T06:36:15;24.13;;;16.60;;
6842;SDS011;3460;52.028;8.916;2023-05-23T06:38:43;26.53;;;16.33;;
6842;SDS011;3460;52.028;8.916;2023-05-23T06:41:10;24.50;;;16.97;;
6842;SDS011;3460;52.028;8.916;2023-05-23T06:43:36;24.53;;;16.57;;
6842;SDS011;3460;52.028;8.916;2023-05-23T06:46:03;24.20;;;15.80;;
6842;SDS011;3460;52.028;8.916;2023-05-23T06:48:30;22.53;;;15.73;;
6842;SDS011;3460;52.028;8.916;2023-05-23T06:50:57;26.17;;;15.77;;
6842;SDS011;3460;52.028;8.916;2023-05-23T06:53:24;27.80;;;16.37;;
6842;SDS011;3460;52.028;8.916;2023-05-23T06:55:52;22.90;;;16.10;;
6842;SDS011;3460;52.028;8.916;2023-05-23T06:58:20;23.83;;;15.63;;
6842;SDS011;3460;52.028;8.916;2023-05-23T07:00:49;26.30;;;15.93;;
6842;SDS011;3460;52.028;8.916;2023-05-23T07:03:16;19.40;;;14.37;;
6842;SDS011;3460;52.028;8.916;2023-05-23T07:05:43;22.33;;;14.60;;
6842;SDS011;3460;52.028;8.916;2023-05-23T07:08:09;25.83;;;13.67;;
6842;SDS011;3460;52.028;8.916;2023-05-23T07:10:37;20.87;;;12.43;;
6842;SDS011;3460;52.028;8.916;2023-05-23T07:13:06;17.77;;;12.40;;
6842;SDS011;3460;52.028;8.916;2023-05-23T07:15:33;16.73;;;12.07;;
6842;SDS011;3460;52.028;8.916;2023-05-23T07:18:00;22.87;;;12.83;;
6842;SDS011;3460;52.028;8.916;2023-05-23T07:20:27;21.73;;;12.43;;
6842;SDS011;3460;52.028;8.916;2023-05-23T07:22:53;20.77;;;11.87;;
6842;SDS011;3460;52.028;8.916;2023-05-23T07:25:21;21.80;;;12.30;;
6842;SDS011;3460;52.028;8.916;2023-05-23T07:27:48;22.47;;;11.80;;
6842;SDS011;3460;52.028;8.916;2023-05-23T07:30:18;19.00;;;11.40;;
6842;SDS011;3460;52.028;8.916;2023-05-23T07:32:45;17.17;;;11.03;;
6842;SDS011;3460;52.028;8.916;2023-05-23T07:35:12;20.60;;;11.13;;
6842;SDS011;3460;52.028;8.916;2023-05-23T07:37:39;18.47;;;11.03;;
6842;SDS011;3460;52.028;8.916;2023-05-23T07:40:06;17.73;;;10.60;;
6842;SDS011;3460;52.028;8.916;2023-05-23T07:42:34;19.90;;;11.00;;
6842;SDS011;3460;52.028;8.916;2023-05-23T07:45:01;19.90;;;11.47;;
6842;SDS011;3460;52.028;8.916;2023-05-23T07:47:29;21.67;;;10.63;;
6842;SDS011;3460;52.028;8.916;2023-05-23T07:49:56;20.60;;;10.63;;
6842;SDS011;3460;52.028;8.916;2023-05-23T07:52:26;19.13;;;9.47;;
6842;SDS011;3460;52.028;8.916;2023-05-23T07:54:53;16.40;;;9.53;;
6842;SDS011;3460;52.028;8.916;2023-05-23T07:57:20;19.77;;;9.80;;
6842;SDS011;3460;52.028;8.916;2023-05-23T07:59:48;19.23;;;9.53;;
6842;SDS011;3460;52.028;8.916;2023-05-23T08:02:15;16.63;;;8.33;;
6842;SDS011;3460;52.028;8.916;2023-05-23T08:04:44;17.13;;;9.07;;
6842;SDS011;3460;52.028;8.916;2023-05-23T08:07:12;15.07;;;8.13;;
6842;SDS011;3460;52.028;8.916;2023-05-23T08:09:39;11.77;;;7.90;;
6842;SDS011;3460;52.028;8.916;2023-05-23T08:12:06;12.93;;;8.00;;
6842;SDS011;3460;52.028;8.916;2023-05-23T08:14:34;12.70;;;7.40;;
6842;SDS011;3460;52.028;8.916;2023-05-23T08:17:01;14.23;;;6.73;;
6842;SDS011;3460;52.028;8.916;2023-05-23T08:19:28;10.17;;;6.47;;
6842;SDS011;3460;52.028;8.916;2023-05-23T08:21:56;14.00;;;5.77;;
6842;SDS011;3460;52.028;8.916;2023-05-23T08:24:23;9.80;;;4.83;;
6842;SDS011;3460;52.028;8.916;2023-05-23T08:26:49;6.47;;;4.40;;
6842;SDS011;3460;52.028;8.916;2023-05-23T08:29:16;5.37;;;4.07;;
6842;SDS011;3460;52.028;8.916;2023-05-23T08:31:43;4.50;;;3.40;;
6842;SDS011;3460;52.028;8.916;2023-05-23T08:34:10;8.47;;;4.17;;
6842;SDS011;3460;52.028;8.916;2023-05-23T08:36:38;4.20;;;2.90;;
6842;SDS011;3460;52.028;8.916;2023-05-23T08:39:08;6.33;;;2.83;;
6842;SDS011;3460;52.028;8.916;2023-05-23T08:41:35;4.13;;;2.90;;
6842;SDS011;3460;52.028;8.916;2023-05-23T08:44:02;4.50;;;3.00;;
6842;SDS011;3460;52.028;8.916;2023-05-23T08:46:29;4.17;;;2.87;;
6842;SDS011;3460;52.028;8.916;2023-05-23T08:48:59;4.03;;;2.60;;
6842;SDS011;3460;52.028;8.916;2023-05-23T08:51:26;3.60;;;2.83;;
6842;SDS011;3460;52.028;8.916;2023-05-23T08:53:53;3.90;;;2.50;;
6842;SDS011;3460;52.028;8.916;2023-05-23T08:56:22;5.30;;;2.13;;
6842;SDS011;3460;52.028;8.916;2023-05-23T08:58:49;4.00;;;1.97;;
6842;SDS011;3460;52.028;8.916;2023-05-23T09:01:18;2.47;;;2.27;;
6842;SDS011;3460;52.028;8.916;2023-05-23T09:03:46;4.33;;;2.10;;
6842;SDS011;3460;52.028;8.916;2023-05-23T09:06:14;2.27;;;2.00;;
6842;SDS011;3460;52.028;8.916;2023-05-23T09:08:48;2.43;;;1.90;;
6842;SDS011;3460;52.028;8.916;2023-05-23T09:11:15;2.47;;;1.60;;
6842;SDS011;3460;52.028;8.916;2023-05-23T09:13:43;2.70;;;1.60;;
6842;SDS011;3460;52.028;8.916;2023-05-23T09:16:10;2.20;;;1.60;;
6842;SDS011;3460;52.028;8.916;2023-05-23T09:18:37;4.17;;;1.70;;
6842;SDS011;3460;52.028;8.916;2023-05-23T09:21:06;1.73;;;1.40;;
6842;SDS011;3460;52.028;8.916;2023-05-23T09:23:33;2.23;;;1.73;;
6842;SDS011;3460;52.028;8.916;2023-05-23T09:26:01;1.80;;;1.50;;
6842;SDS011;3460;52.028;8.916;2023-05-23T09:28:29;2.27;;;1.70;;
6842;SDS011;3460;52.028;8.916;2023-05-23T09:31:00;2.63;;;1.60;;
6842;SDS011;3460;52.028;8.916;2023-05-23T09:33:32;2.77;;;2.00;;
6842;SDS011;3460;52.028;8.916;2023-05-23T09:36:02;3.63;;;2.20;;
6842;SDS011;3460;52.028;8.916;2023-05-23T09:38:29;4.67;;;2.20;;
6842;SDS011;3460;52.028;8.916;2023-05-23T09:40:57;4.10;;;2.50;;
6842;SDS011;3460;52.028;8.916;2023-05-23T09:43:24;3.47;;;2.80;;
6842;SDS011;3460;52.028;8.916;2023-05-23T09:45:53;6.23;;;3.80;;
6842;SDS011;3460;52.028;8.916;2023-05-23T09:48:28;9.97;;;4.17;;
6842;SDS011;3460;52.028;8.916;2023-05-23T09:50:56;7.90;;;3.93;;
6842;SDS011;3460;52.028;8.916;2023-05-23T09:53:23;11.07;;;4.37;;
6842;SDS011;3460;52.028;8.916;2023-05-23T09:55:50;8.80;;;4.30;;
6842;SDS011;3460;52.028;8.916;2023-05-23T09:58:18;10.43;;;5.27;;
6842;SDS011;3460;52.028;8.916;2023-05-23T10:00:46;8.37;;;4.50;;
6842;SDS011;3460;52.028;8.916;2023-05-23T10:03:16;8.97;;;5.33;;
6842;SDS011;3460;52.028;8.916;2023-05-23T10:05:49;11.07;;;4.97;;
6842;SDS011;3460;52.028;8.916;2023-05-23T10:08:22;9.43;;;5.03;;
6842;SDS011;3460;52.028;8.916;2023-05-23T10:11:20;12.43;;;5.77;;
6842;SDS011;3460;52.028;8.916;2023-05-23T10:14:15;12.00;;;6.10;;
6842;SDS011;3460;52.028;8.916;2023-05-23T10:16:46;13.30;;;5.93;;
6842;SDS011;3460;52.028;8.916;2023-05-23T10:19:22;16.03;;;6.47;;
6842;SDS011;3460;52.028;8.916;2023-05-23T10:21:56;18.53;;;6.90;;
6842;SDS011;3460;52.028;8.916;2023-05-23T10:24:25;10.50;;;6.17;;
6842;SDS011;3460;52.028;8.916;2023-05-23T10:26:53;12.97;;;6.77;;
6842;SDS011;3460;52.028;8.916;2023-05-23T10:29:20;13.23;;;6.30;;
6842;SDS011;3460;52.028;8.916;2023-05-23T10:31:48;12.20;;;6.40;;
6842;SDS011;3460;52.028;8.916;2023-05-23T10:34:19;12.43;;;6.37;;
6842;SDS011;3460;52.028;8.916;2023-05-23T10:36:54;11.63;;;6.03;;
6842;SDS011;3460;52.028;8.916;2023-05-23T10:39:27;12.13;;;6.17;;
6842;SDS011;3460;52.028;8.916;2023-05-23T10:42:03;10.40;;;5.63;;
6842;SDS011;3460;52.028;8.916;2023-05-23T10:44:35;12.90;;;5.93;;
6842;SDS011;3460;52.028;8.916;2023-05-23T10:47:02;9.33;;;5.70;;
6842;SDS011;3460;52.028;8.916;2023-05-23T10:52:22;20.00;;;6.50;;
6842;SDS011;3460;52.028;8.916;2023-05-23T10:54:51;14.27;;;6.83;;
6842;SDS011;3460;52.028;8.916;2023-05-23T10:57:19;15.83;;;7.10;;
6842;SDS011;3460;52.028;8.916;2023-05-23T10:59:47;15.00;;;7.53;;
6842;SDS011;3460;52.028;8.916;2023-05-23T11:02:18;11.03;;;6.70;;
6842;SDS011;3460;52.028;8.916;2023-05-23T11:05:01;16.50;;;6.70;;
6842;SDS011;3460;52.028;8.916;2023-05-23T11:07:46;12.43;;;6.53;;
6842;SDS011;3460;52.028;8.916;2023-05-23T11:10:31;15.40;;;6.77;;
6842;SDS011;3460;52.028;8.916;2023-05-23T11:13:04;15.97;;;7.50;;
6842;SDS011;3460;52.028;8.916;2023-05-23T11:15:40;14.57;;;7.20;;
6842;SDS011;3460;52.028;8.916;2023-05-23T11:18:09;15.90;;;7.23;;
6842;SDS011;3460;52.028;8.916;2023-05-23T11:20:36;14.17;;;7.03;;
6842;SDS011;3460;52.028;8.916;2023-05-23T11:23:07;13.77;;;6.80;;
6842;SDS011;3460;52.028;8.916;2023-05-23T11:25:40;17.10;;;6.97;;
6842;SDS011;3460;52.028;8.916;2023-05-23T11:28:08;12.77;;;5.90;;
6842;SDS011;3460;52.028;8.916;2023-05-23T11:30:35;15.13;;;6.43;;
6842;SDS011;3460;52.028;8.916;2023-05-23T11:33:06;16.37;;;6.43;;
6842;SDS011;3460;52.028;8.916;2023-05-23T11:35:37;12.80;;;5.97;;
6842;SDS011;3460;52.028;8.916;2023-05-23T11:38:05;16.20;;;6.40;;
6842;SDS011;3460;52.028;8.916;2023-05-23T11:40:33;13.43;;;6.13;;
6842;SDS011;3460;52.028;8.916;2023-05-23T11:43:02;14.77;;;5.70;;
6842;SDS011;3460;52.028;8.916;2023-05-23T11:45:30;14.60;;;5.90;;
6842;SDS011;3460;52.028;8.916;2023-05-23T11:47:57;12.83;;;6.23;;
6842;SDS011;3460;52.028;8.916;2023-05-23T11:50:25;13.07;;;5.50;;
6842;SDS011;3460;52.028;8.916;2023-05-23T11:52:53;11.90;;;6.10;;
6842;SDS011;3460;52.028;8.916;2023-05-23T11:55:20;10.93;;;5.50;;
6842;SDS011;3460;52.028;8.916;2023-05-23T11:57:49;11.97;;;5.50;;
6842;SDS011;3460;52.028;8.916;2023-05-23T12:00:17;11.43;;;5.37;;
6842;SDS011;3460;52.028;8.916;2023-05-23T12:02:45;10.67;;;4.87;;
6842;SDS011;3460;52.028;8.916;2023-05-23T12:05:13;10.97;;;4.70;;
6842;SDS011;3460;52.028;8.916;2023-05-23T12:07:40;9.63;;;4.70;;
6842;SDS011;3460;52.028;8.916;2023-05-23T12:10:08;11.73;;;4.63;;
6842;SDS011;3460;52.028;8.916;2023-05-23T12:12:35;13.67;;;4.87;;
6842;SDS011;3460;52.028;8.916;2023-05-23T12:15:05;13.50;;;4.80;;
6842;SDS011;3460;52.028;8.916;2023-05-23T12:17:33;13.07;;;4.70;;
6842;SDS011;3460;52.028;8.916;2023-05-23T12:20:01;14.07;;;5.23;;
6842;SDS011;3460;52.028;8.916;2023-05-23T12:22:28;15.23;;;4.90;;
6842;SDS011;3460;52.028;8.916;2023-05-23T12:24:55;12.80;;;5.17;;
6842;SDS011;3460;52.028;8.916;2023-05-23T12:27:25;16.20;;;4.70;;
6842;SDS011;3460;52.028;8.916;2023-05-23T12:30:03;14.47;;;5.13;;
6842;SDS011;3460;52.028;8.916;2023-05-23T12:32:33;13.00;;;4.93;;
6842;SDS011;3460;52.028;8.916;2023-05-23T12:35:00;11.50;;;5.03;;
6842;SDS011;3460;52.028;8.916;2023-05-23T12:37:28;16.17;;;5.20;;
6842;SDS011;3460;52.028;8.916;2023-05-23T12:39:55;18.40;;;5.20;;
6842;SDS011;3460;52.028;8.916;2023-05-23T12:42:22;21.07;;;5.63;;
6842;SDS011;3460;52.028;8.916;2023-05-23T12:44:52;17.20;;;5.30;;
6842;SDS011;3460;52.028;8.916;2023-05-23T12:47:20;17.80;;;4.70;;
6842;SDS011;3460;52.028;8.916;2023-05-23T12:49:47;13.03;;;5.00;;
6842;SDS011;3460;52.028;8.916;2023-05-23T12:52:14;18.43;;;5.20;;
6842;SDS011;3460;52.028;8.916;2023-05-23T12:54:40;15.03;;;4.87;;
6842;SDS011;3460;52.028;8.916;2023-05-23T12:57:07;17.47;;;5.13;;
6842;SDS011;3460;52.028;8.916;2023-05-23T12:59:34;22.03;;;5.33;;
6842;SDS011;3460;52.028;8.916;2023-05-23T13:02:01;15.53;;;4.67;;
6842;SDS011;3460;52.028;8.916;2023-05-23T13:04:30;19.57;;;4.90;;
6842;SDS011;3460;52.028;8.916;2023-05-23T13:06:56;16.23;;;4.80;;
6842;SDS011;3460;52.028;8.916;2023-05-23T13:09:23;21.13;;;5.17;;
6842;SDS011;3460;52.028;8.916;2023-05-23T13:11:50;18.80;;;4.40;;
6842;SDS011;3460;52.028;8.916;2023-05-23T13:14:18;16.77;;;4.80;;
6842;SDS011;3460;52.028;8.916;2023-05-23T13:16:45;13.07;;;4.10;;
6842;SDS011;3460;52.028;8.916;2023-05-23T13:19:11;16.23;;;4.87;;
6842;SDS011;3460;52.028;8.916;2023-05-23T13:21:40;15.97;;;4.60;;
6842;SDS011;3460;52.028;8.916;2023-05-23T13:24:07;9.97;;;4.37;;
6842;SDS011;3460;52.028;8.916;2023-05-23T13:26:34;13.43;;;4.83;;
6842;SDS011;3460;52.028;8.916;2023-05-23T13:29:00;12.23;;;4.73;;
6842;SDS011;3460;52.028;8.916;2023-05-23T13:31:27;10.23;;;4.20;;
6842;SDS011;3460;52.028;8.916;2023-05-23T13:33:54;13.07;;;4.63;;
6842;SDS011;3460;52.028;8.916;2023-05-23T13:36:21;12.97;;;4.27;;
6842;SDS011;3460;52.028;8.916;2023-05-23T13:38:50;12.13;;;4.13;;
6842;SDS011;3460;52.028;8.916;2023-05-23T13:41:17;14.67;;;5.27;;
6842;SDS011;3460;52.028;8.916;2023-05-23T13:43:44;12.07;;;4.27;;
6842;SDS011;3460;52.028;8.916;2023-05-23T13:46:11;10.97;;;4.13;;
6842;SDS011;3460;52.028;8.916;2023-05-23T13:48:38;17.23;;;4.00;;
6842;SDS011;3460;52.028;8.916;2023-05-23T13:51:05;10.87;;;4.33;;
6842;SDS011;3460;52.028;8.916;2023-05-23T13:53:31;14.27;;;4.07;;
6842;SDS011;3460;52.028;8.916;2023-05-23T13:56:00;12.97;;;4.43;;
6842;SDS011;3460;52.028;8.916;2023-05-23T13:58:27;12.10;;;3.90;;
6842;SDS011;3460;52.028;8.916;2023-05-23T14:00:54;13.03;;;4.07;;
6842;SDS011;3460;52.028;8.916;2023-05-23T14:03:21;10.93;;;3.77;;
6842;SDS011;3460;52.028;8.916;2023-05-23T14:05:49;12.27;;;3.67;;
6842;SDS011;3460;52.028;8.916;2023-05-23T14:08:16;14.40;;;4.00;;
6842;SDS011;3460;52.028;8.916;2023-05-23T14:10:42;13.50;;;3.93;;
6842;SDS011;3460;52.028;8.916;2023-05-23T14:13:11;11.03;;;3.77;;
6842;SDS011;3460;52.028;8.916;2023-05-23T14:15:37;13.90;;;4.03;;
6842;SDS011;3460;52.028;8.916;2023-05-23T14:18:06;10.10;;;4.23;;
6842;SDS011;3460;52.028;8.916;2023-05-23T14:20:32;9.77;;;3.83;;
6842;SDS011;3460;52.028;8.916;2023-05-23T14:22:59;11.13;;;3.60;;
6842;SDS011;3460;52.028;8.916;2023-05-23T14:25:26;14.10;;;4.00;;
6842;SDS011;3460;52.028;8.916;2023-05-23T14:27:53;10.53;;;4.47;;
6842;SDS011;3460;52.028;8.916;2023-05-23T14:30:21;13.47;;;3.50;;
6842;SDS011;3460;52.028;8.916;2023-05-23T14:32:48;7.57;;;3.40;;
6842;SDS011;3460;52.028;8.916;2023-05-23T14:35:15;11.40;;;3.90;;
6842;SDS011;3460;52.028;8.916;2023-05-23T14:37:43;10.30;;;3.70;;
6842;SDS011;3460;52.028;8.916;2023-05-23T14:40:11;12.57;;;3.90;;
6842;SDS011;3460;52.028;8.916;2023-05-23T14:42:38;15.20;;;3.93;;
6842;SDS011;3460;52.028;8.916;2023-05-23T14:45:05;8.47;;;3.23;;
6842;SDS011;3460;52.028;8.916;2023-05-23T14:47:33;11.23;;;3.87;;
6842;SDS011;3460;52.028;8.916;2023-05-23T14:50:01;10.37;;;3.73;;
6842;SDS011;3460;52.028;8.916;2023-05-23T14:52:28;13.63;;;4.37;;
6842;SDS011;3460;52.028;8.916;2023-05-23T14:54:55;12.80;;;3.90;;
6842;SDS011;3460;52.028;8.916;2023-05-23T14:57:22;16.10;;;5.07;;
6842;SDS011;3460;52.028;8.916;2023-05-23T14:59:49;11.23;;;4.00;;
6842;SDS011;3460;52.028;8.916;2023-05-23T15:02:15;13.90;;;4.10;;
6842;SDS011;3460;52.028;8.916;2023-05-23T15:04:44;13.63;;;3.97;;
6842;SDS011;3460;52.028;8.916;2023-05-23T15:07:11;10.10;;;3.80;;
6842;SDS011;3460;52.028;8.916;2023-05-23T15:09:38;13.63;;;3.67;;